Terminal Aerodrome Forecast
Issued by NWS

Home | Current Version | Previous Version | Text Only | Print | Product List | Glossary On
Versions: 1 2 3 4 5 6 7 8 9 10 11 12 13 14 15 16 17 18 19 20 21 22 23 24 25 26 27
000
FTPA31 PHFO 211700
TAFKOA
TAF
PHKO 211727Z 2118/2218 13005KT P6SM FEW050
     FM211900 20009KT P6SM SCT050
     FM212200 23010KT P6SM VCSH SCT030 BKN050
     FM220600 12005KT P6SM SCT050=

USA.gov is the U.S. government's official web portal to all federal, state and local government web resources and services.